Time;durP1;ratioP1;P1;durP2;ratioP2;P2;SDS_P1;SDS_P2;PMS_P1;PMS_P2;Temp;Humidity;BMP_temperature;BMP_pressure;BME280_temperature;BME280_humidity;BME280_pressure;Samples;Min_cycle;Max_cycle;Signal;HPM_P1;HPM_P2
2021/11/01 00:02:27;;;;;;;13.10;4.95;;;14.90;96.20;;;;;;6247985;28;20072;-87
2021/11/01 00:05:30;;;;;;;9.07;4.28;;;14.90;96.30;;;;;;6247317;28;20038;-86
2021/11/01 00:08:32;;;;;;;11.30;4.25;;;15.00;96.20;;;;;;6247765;28;20046;-86
2021/11/01 00:11:33;;;;;;;8.45;3.95;;;15.00;96.20;;;;;;6246250;28;20566;-87
2021/11/01 00:14:35;;;;;;;7.32;4.00;;;15.10;96.20;;;;;;6247067;28;20050;-86
2021/11/01 00:17:37;;;;;;;6.30;3.70;;;15.10;96.10;;;;;;6246350;28;20045;-86
2021/11/01 00:20:41;;;;;;;8.93;3.50;;;15.10;96.20;;;;;;6246965;28;20666;-86
2021/11/01 00:23:44;;;;;;;5.55;3.60;;;15.20;96.10;;;;;;6246843;28;20176;-86
2021/11/01 00:26:47;;;;;;;7.05;4.15;;;15.20;96.00;;;;;;6247400;28;20052;-86
2021/11/01 00:29:48;;;;;;;6.18;3.35;;;15.20;96.00;;;;;;6246487;28;20045;-87
2021/11/01 00:32:50;;;;;;;6.10;2.53;;;15.20;95.90;;;;;;6246808;28;20272;-89
2021/11/01 00:35:53;;;;;;;5.38;2.70;;;15.20;95.80;;;;;;6245763;28;20114;-86
2021/11/01 00:38:55;;;;;;;6.97;2.00;;;15.10;95.70;;;;;;6246688;28;20054;-86
2021/11/01 00:41:57;;;;;;;9.95;1.98;;;15.10;95.40;;;;;;6245769;28;20166;-86
2021/11/01 00:45:00;;;;;;;5.18;1.15;;;14.90;95.10;;;;;;6246194;28;20053;-87
2021/11/01 00:48:02;;;;;;;4.63;1.20;;;14.70;95.00;;;;;;6246393;28;20136;-87
2021/11/01 00:51:05;;;;;;;10.30;1.42;;;14.60;95.00;;;;;;6248398;28;20522;-87
2021/11/01 00:54:08;;;;;;;2.60;0.47;;;14.50;94.90;;;;;;6250795;28;20075;-88
2021/11/01 00:57:09;;;;;;;0.90;0.40;;;14.40;95.10;;;;;;6251075;28;20053;-88
2021/11/01 01:00:12;;;;;;;3.70;0.57;;;14.30;95.20;;;;;;6251572;28;20184;-88
2021/11/01 01:03:15;;;;;;;3.80;0.68;;;14.30;95.20;;;;;;6250582;28;20064;-90
2021/11/01 01:06:18;;;;;;;2.28;0.60;;;14.20;94.90;;;;;;6251196;28;20128;-89
2021/11/01 01:09:20;;;;;;;7.63;0.80;;;14.10;95.00;;;;;;6250563;28;20388;-90
2021/11/01 01:12:22;;;;;;;5.82;1.20;;;14.00;95.20;;;;;;6250407;28;20053;-89
2021/11/01 01:15:26;;;;;;;5.25;0.75;;;14.00;95.30;;;;;;6250018;28;20519;-88
2021/11/01 01:18:34;;;;;;;4.78;0.63;;;13.90;95.60;;;;;;6250940;28;20056;-90
2021/11/01 01:25:03;;;;;;;7.45;1.00;;;13.90;95.60;;;;;;6250064;28;20041;-89
2021/11/01 01:28:05;;;;;;;7.95;1.45;;;13.90;95.70;;;;;;6249509;28;20084;-88
2021/11/01 01:31:07;;;;;;;3.83;0.50;;;13.80;95.40;;;;;;6249553;28;20596;-88
2021/11/01 01:34:09;;;;;;;5.03;0.93;;;13.70;95.10;;;;;;6250711;28;20049;-88
2021/11/01 01:37:13;;;;;;;4.07;0.43;;;13.50;95.20;;;;;;6249338;28;20072;-88
2021/11/01 01:40:16;;;;;;;6.85;0.60;;;13.30;95.40;;;;;;6249924;28;20052;-88
2021/11/01 01:43:18;;;;;;;5.00;0.68;;;13.20;95.40;;;;;;6247491;28;20049;-88
2021/11/01 01:46:21;;;;;;;15.40;0.93;;;13.10;95.60;;;;;;6250788;28;20048;-88
2021/11/01 01:49:23;;;;;;;8.57;0.57;;;13.00;95.60;;;;;;6248100;28;20045;-88
2021/11/01 01:52:26;;;;;;;8.25;1.42;;;12.90;95.60;;;;;;6249278;28;20052;-90
2021/11/01 01:55:30;;;;;;;14.95;1.10;;;12.90;95.70;;;;;;6248585;28;20072;-89
2021/11/01 02:01:53;;;;;;;4.07;0.60;;;12.80;95.40;;;;;;6248022;28;20042;-87
2021/11/01 02:04:55;;;;;;;6.00;0.52;;;12.70;95.60;;;;;;6247789;28;20073;-89
2021/11/01 02:08:03;;;;;;;4.80;0.60;;;12.60;95.50;;;;;;6248938;28;20046;-88
2021/11/01 02:11:11;;;;;;;3.88;1.40;;;12.60;95.70;;;;;;6248632;28;20077;-89
2021/11/01 02:14:14;;;;;;;8.15;0.70;;;12.50;95.80;;;;;;6248723;28;20056;-88
2021/11/01 02:17:19;;;;;;;5.70;0.70;;;12.50;96.00;;;;;;6247773;28;20526;-89
2021/11/01 02:20:32;;;;;;;9.82;0.90;;;12.50;95.80;;;;;;6248092;28;20131;-88
2021/11/01 02:23:44;;;;;;;9.25;1.00;;;12.40;95.90;;;;;;6248606;28;20092;-88
2021/11/01 02:26:50;;;;;;;11.88;2.00;;;12.40;95.90;;;;;;6248278;28;20072;-89
2021/11/01 02:29:52;;;;;;;6.22;0.77;;;12.30;95.90;;;;;;6247680;28;20541;-90
2021/11/01 02:32:55;;;;;;;11.77;0.68;;;12.40;96.00;;;;;;6247542;28;20135;-89
2021/11/01 02:35:58;;;;;;;8.70;1.02;;;12.30;96.00;;;;;;6238551;28;20124;-89
2021/11/01 02:39:01;;;;;;;4.40;0.90;;;12.30;96.00;;;;;;6247662;28;20045;-88
2021/11/01 02:42:05;;;;;;;21.88;1.10;;;12.20;96.00;;;;;;6247677;28;20092;-88
2021/11/01 02:45:09;;;;;;;3.45;0.70;;;12.30;95.70;;;;;;6247132;28;20518;-88
2021/11/01 02:48:12;;;;;;;17.48;2.15;;;12.30;95.90;;;;;;6230909;28;20046;-89
2021/11/01 02:51:15;;;;;;;7.95;0.70;;;12.30;95.90;;;;;;6218845;28;20745;-88
2021/11/01 02:54:17;;;;;;;6.35;0.95;;;12.30;95.90;;;;;;6245618;28;20053;-89
2021/11/01 02:57:20;;;;;;;4.90;0.93;;;12.20;95.70;;;;;;6254240;28;20056;-88
2021/11/01 03:00:26;;;;;;;5.55;1.00;;;12.20;95.90;;;;;;6252455;28;20041;-89
2021/11/01 03:03:27;;;;;;;11.32;0.55;;;12.20;95.90;;;;;;6235934;28;20049;-89
2021/11/01 03:06:32;;;;;;;13.07;0.90;;;12.20;95.80;;;;;;6222985;28;20054;-89
2021/11/01 03:09:39;;;;;;;7.55;1.00;;;12.20;95.90;;;;;;6222397;28;20048;-88
2021/11/01 03:12:47;;;;;;;6.82;0.93;;;12.20;95.90;;;;;;6222612;28;20138;-88
2021/11/01 03:15:50;;;;;;;7.38;1.17;;;12.10;96.00;;;;;;6222642;28;20038;-88
2021/11/01 03:19:04;;;;;;;8.45;1.33;;;12.20;96.00;;;;;;6222463;28;20129;-87
2021/11/01 03:22:07;;;;;;;10.35;1.20;;;12.20;95.90;;;;;;6220987;28;20053;-88
2021/11/01 03:25:23;;;;;;;7.95;0.57;;;12.20;96.00;;;;;;6222214;28;20050;-88
2021/11/01 03:28:27;;;;;;;8.02;0.88;;;12.20;95.90;;;;;;6220762;28;20045;-88
2021/11/01 03:31:30;;;;;;;5.82;0.75;;;12.20;95.90;;;;;;6222728;28;20132;-88
2021/11/01 03:34:32;;;;;;;5.85;0.68;;;12.30;95.90;;;;;;6222694;28;20050;-87
2021/11/01 03:37:35;;;;;;;5.75;1.00;;;12.20;95.80;;;;;;6221799;28;20038;-87
2021/11/01 03:40:39;;;;;;;7.90;0.77;;;12.10;95.90;;;;;;6222160;28;20055;-87
2021/11/01 03:43:52;;;;;;;8.38;0.85;;;12.20;96.00;;;;;;6223406;28;20041;-87
2021/11/01 03:46:55;;;;;;;11.32;1.65;;;12.20;96.00;;;;;;6224309;28;20077;-87
2021/11/01 03:50:01;;;;;;;5.68;0.73;;;12.10;95.90;;;;;;6222992;28;20042;-88
2021/11/01 03:53:03;;;;;;;5.20;0.75;;;12.10;95.90;;;;;;6222752;28;20049;-88
2021/11/01 03:56:06;;;;;;;8.80;1.25;;;12.10;96.00;;;;;;6222997;28;20119;-88
2021/11/01 03:59:10;;;;;;;7.30;1.58;;;12.10;96.00;;;;;;6223729;28;20197;-87
2021/11/01 04:02:13;;;;;;;7.47;1.73;;;12.10;96.00;;;;;;6223521;28;20123;-87
2021/11/01 04:05:15;;;;;;;2.90;0.98;;;12.10;96.10;;;;;;6223107;28;20056;-89
2021/11/01 04:08:17;;;;;;;7.70;0.95;;;12.20;95.90;;;;;;6240861;28;20068;-87
2021/11/01 04:11:18;;;;;;;9.52;2.33;;;12.10;95.90;;;;;;6247639;28;20053;-86
2021/11/01 04:14:23;;;;;;;8.98;0.93;;;12.10;95.90;;;;;;6248441;28;20139;-87
2021/11/01 04:17:36;;;;;;;4.32;0.70;;;12.10;96.00;;;;;;6233217;28;20041;-87
2021/11/01 04:20:49;;;;;;;5.25;0.70;;;12.10;95.90;;;;;;6223748;28;20132;-87
2021/11/01 04:23:53;;;;;;;3.00;0.60;;;12.10;95.90;;;;;;6222126;28;20045;-87
2021/11/01 04:26:55;;;;;;;12.18;2.88;;;12.10;95.90;;;;;;6228479;28;20045;-88
2021/11/01 04:29:59;;;;;;;9.05;1.00;;;12.10;95.50;;;;;;6251692;28;20056;-87
2021/11/01 04:33:03;;;;;;;5.57;0.80;;;12.10;95.60;;;;;;6251791;28;20400;-87
2021/11/01 04:36:05;;;;;;;18.95;1.95;;;12.00;95.60;;;;;;6238758;28;20131;-87
2021/11/01 04:39:10;;;;;;;15.55;2.65;;;12.00;95.80;;;;;;6227215;28;20050;-87
2021/11/01 04:55:43;;;;;;;5.07;1.02;;;12.20;95.70;;;;;;6226442;28;20038;-87
2021/11/01 04:58:47;;;;;;;6.85;1.00;;;12.10;95.60;;;;;;6226909;28;20042;-88
2021/11/01 05:01:52;;;;;;;6.78;0.65;;;12.00;95.70;;;;;;6227238;28;20061;-88
2021/11/01 05:04:54;;;;;;;3.47;0.85;;;12.00;95.80;;;;;;6232941;28;20049;-87
2021/11/01 05:07:58;;;;;;;4.32;0.52;;;12.00;95.80;;;;;;6250694;28;20585;-86
2021/11/01 05:11:05;;;;;;;7.93;0.90;;;12.00;95.70;;;;;;6252199;28;20214;-88
2021/11/01 05:14:11;;;;;;;5.95;0.60;;;12.00;95.80;;;;;;6251574;28;20061;-87
2021/11/01 05:17:24;;;;;;;2.72;0.77;;;12.00;95.70;;;;;;6252953;28;20046;-87
2021/11/01 05:20:32;;;;;;;6.28;0.70;;;12.10;95.80;;;;;;6251354;28;20056;-88
2021/11/01 05:23:36;;;;;;;6.03;1.13;;;12.10;95.80;;;;;;6250664;28;20045;-86
2021/11/01 05:26:54;;;;;;;3.53;0.60;;;12.10;95.70;;;;;;6251362;28;20496;-90
2021/11/01 05:30:02;;;;;;;6.80;0.60;;;12.00;95.50;;;;;;6225125;28;20050;-86
2021/11/01 05:36:27;;;;;;;4.80;0.70;;;12.10;95.80;;;;;;6224923;28;20125;-88
2021/11/01 05:39:29;;;;;;;4.32;0.60;;;12.00;95.70;;;;;;6225756;28;20073;-87
2021/11/01 05:42:31;;;;;;;3.70;0.40;;;12.10;95.70;;;;;;6224818;28;20068;-85
2021/11/01 05:45:33;;;;;;;1.95;0.52;;;12.10;95.60;;;;;;6224176;28;20049;-85
2021/11/01 05:48:36;;;;;;;7.40;0.70;;;12.00;95.50;;;;;;6223765;28;20053;-85
2021/11/01 05:51:39;;;;;;;4.88;0.43;;;12.00;95.50;;;;;;6224782;28;20140;-86
2021/11/01 05:54:40;;;;;;;6.45;0.38;;;12.00;95.30;;;;;;6224713;28;20065;-85
2021/11/01 05:57:49;;;;;;;3.70;0.70;;;11.90;95.20;;;;;;6223582;28;20042;-85
2021/11/01 06:04:18;;;;;;;4.68;0.43;;;11.80;95.30;;;;;;6217182;28;20110;-85
2021/11/01 06:07:36;;;;;;;6.05;0.30;;;11.80;95.30;;;;;;6232282;28;20042;-86
2021/11/01 06:10:51;;;;;;;0.93;0.20;;;11.80;95.30;;;;;;6228951;28;20050;-84
2021/11/01 06:13:53;;;;;;;3.85;0.40;;;11.80;95.30;;;;;;6238559;28;20061;-84
2021/11/01 06:16:55;;;;;;;0.63;0.13;;;11.80;95.30;;;;;;6248045;28;20422;-85
2021/11/01 06:19:58;;;;;;;0.20;0.10;;;11.80;95.30;;;;;;6247198;28;20503;-85
2021/11/01 06:23:00;;;;;;;1.60;0.50;;;11.80;95.40;;;;;;6231058;28;20057;-85
2021/11/01 06:26:02;;;;;;;4.40;0.43;;;11.80;95.10;;;;;;6223285;28;21489;-85
2021/11/01 06:29:07;;;;;;;2.95;0.50;;;11.80;95.30;;;;;;6224010;28;20050;-85
2021/11/01 06:32:13;;;;;;;3.47;0.50;;;11.80;95.20;;;;;;6223820;28;20093;-85
2021/11/01 06:42:09;;;;;;;2.75;0.50;;;11.80;95.20;;;;;;6222610;28;20551;-85
2021/11/01 06:52:24;;;;;;;3.88;0.40;;;11.80;95.10;;;;;;6223349;28;20033;-86
2021/11/01 07:02:02;;;;;;;2.55;0.47;;;11.80;95.00;;;;;;6184355;28;20050;-85
2021/11/01 07:15:36;;;;;;;2.30;0.20;;;11.80;94.90;;;;;;6229296;28;20045;-86
2021/11/01 07:18:44;;;;;;;2.83;0.50;;;11.80;94.80;;;;;;6217401;28;20052;-86
2021/11/01 07:22:08;;;;;;;3.58;0.77;;;11.70;94.90;;;;;;6229679;28;20041;-87
2021/11/01 08:22:53;;;;;;;2.95;0.20;;;12.20;93.60;;;;;;6291200;28;20132;-81
2021/11/01 08:29:26;;;;;;;5.57;2.83;;;12.30;93.20;;;;;;6276025;28;20046;-81
2021/11/01 08:36:13;;;;;;;2.58;0.30;;;12.30;93.60;;;;;;6276798;28;20406;-82
2021/11/01 08:39:44;;;;;;;2.55;0.38;;;12.40;93.50;;;;;;6264401;28;20057;-80
2021/11/01 08:46:29;;;;;;;0.45;0.10;;;12.40;93.00;;;;;;6262021;28;20041;-80
2021/11/01 09:06:13;;;;;;;2.38;0.35;;;12.60;93.00;;;;;;6267723;28;20052;-82
2021/11/01 09:13:11;;;;;;;1.85;0.20;;;12.70;92.80;;;;;;6280792;28;20045;-83
2021/11/01 09:19:49;;;;;;;5.03;0.75;;;13.00;93.10;;;;;;6255789;28;20037;-82
2021/11/01 09:26:27;;;;;;;0.38;0.20;;;13.20;92.20;;;;;;6244473;28;20049;-82
2021/11/01 09:29:43;;;;;;;12.38;1.10;;;13.30;92.60;;;;;;6280522;28;20045;-82
2021/11/01 09:36:19;;;;;;;5.30;0.30;;;13.50;92.30;;;;;;6226515;28;20050;-81
2021/11/01 09:39:44;;;;;;;1.77;0.20;;;13.60;91.80;;;;;;6279206;28;20053;-83
2021/11/01 09:42:50;;;;;;;0.98;0.30;;;13.80;91.10;;;;;;6279945;28;20083;-83
2021/11/01 09:45:55;;;;;;;1.40;0.20;;;13.90;91.40;;;;;;6279298;28;20242;-81
2021/11/01 09:49:12;;;;;;;0.85;0.20;;;14.20;92.10;;;;;;6277483;28;20049;-83
2021/11/01 09:52:14;;;;;;;0.82;0.30;;;14.30;90.50;;;;;;6263994;28;20064;-82
2021/11/01 09:55:35;;;;;;;1.08;0.30;;;14.20;90.60;;;;;;6277354;28;20053;-82
2021/11/01 10:01:57;;;;;;;0.47;0.10;;;14.10;90.10;;;;;;6278380;28;20529;-82
2021/11/01 10:05:01;;;;;;;1.02;0.30;;;14.00;89.70;;;;;;6280534;28;20055;-83
2021/11/01 10:08:03;;;;;;;5.00;0.90;;;13.90;88.30;;;;;;6278799;28;20168;-82
2021/11/01 10:11:15;;;;;;;0.82;0.30;;;13.80;89.40;;;;;;6276249;28;20499;-83
2021/11/01 10:14:19;;;;;;;2.08;0.22;;;13.80;89.20;;;;;;6279782;28;20052;-83
2021/11/01 10:17:35;;;;;;;1.45;0.40;;;13.80;89.40;;;;;;6279612;28;20048;-83
2021/11/01 10:20:42;;;;;;;0.63;0.15;;;13.80;89.30;;;;;;6279611;28;20078;-81
2021/11/01 10:23:50;;;;;;;1.45;0.50;;;13.80;88.10;;;;;;6270064;28;20087;-83
2021/11/01 10:26:52;;;;;;;4.25;0.20;;;13.80;88.70;;;;;;6252864;28;20061;-83
2021/11/01 10:29:58;;;;;;;1.00;0.32;;;13.90;86.60;;;;;;6253159;28;20076;-82
2021/11/01 10:33:01;;;;;;;3.55;2.53;;;13.90;87.50;;;;;;6253160;28;20658;-83
2021/11/01 10:36:03;;;;;;;3.92;1.30;;;14.00;88.70;;;;;;6253623;28;20184;-83
2021/11/01 10:39:09;;;;;;;3.15;1.50;;;14.00;88.30;;;;;;6252827;28;20076;-82
2021/11/01 10:42:18;;;;;;;2.70;0.30;;;14.10;88.00;;;;;;6253442;28;20446;-83
2021/11/01 10:45:34;;;;;;;2.40;0.32;;;14.10;87.10;;;;;;6253099;28;20057;-82
2021/11/01 11:12:11;;;;;;;1.13;0.25;;;14.50;82.00;;;;;;6277459;28;20045;-83
2021/11/01 11:15:15;;;;;;;1.92;0.20;;;14.50;81.50;;;;;;6257669;28;20515;-82
2021/11/01 11:18:45;;;;;;;1.15;0.20;;;14.60;81.90;;;;;;6260504;28;20052;-83
2021/11/01 11:22:12;;;;;;;0.80;0.20;;;14.80;81.50;;;;;;6264558;28;20534;-83
2021/11/01 11:28:52;;;;;;;0.63;0.13;;;15.00;80.80;;;;;;6285995;28;20045;-84
2021/11/01 11:42:50;;;;;;;1.67;0.28;;;15.40;78.20;;;;;;6284943;28;20085;-85
2021/11/01 11:49:27;;;;;;;5.30;2.70;;;15.50;74.90;;;;;;6285367;28;20053;-85
2021/11/01 11:52:36;;;;;;;2.10;0.55;;;15.50;74.80;;;;;;6284399;28;20502;-85
2021/11/01 11:55:39;;;;;;;0.40;0.30;;;15.70;75.10;;;;;;6265528;28;20109;-84
2021/11/01 11:58:48;;;;;;;0.95;0.30;;;15.70;72.60;;;;;;6258218;28;20052;-82
2021/11/01 12:01:53;;;;;;;6.72;6.05;;;15.90;73.90;;;;;;6251913;28;20050;-85
2021/11/01 12:05:10;;;;;;;0.63;0.10;;;16.00;75.70;;;;;;6253259;28;20069;-83
2021/11/01 12:08:21;;;;;;;0.43;0.22;;;16.20;72.70;;;;;;6252253;28;20052;-83
2021/11/01 12:17:02;;;;;;;0.50;0.15;;;16.40;72.30;;;;;;6258775;28;20382;-85
2021/11/01 12:18:03;;;;;;;3.10;0.80;;;16.40;70.60;;;;;;6256193;28;20046;-84
2021/11/01 12:21:05;;;;;;;0.65;0.20;;;16.40;71.00;;;;;;6260787;28;20052;-85
2021/11/01 12:24:10;;;;;;;1.63;0.22;;;16.50;70.20;;;;;;6267360;28;20052;-84
2021/11/01 12:27:12;;;;;;;0.80;0.28;;;16.60;68.50;;;;;;6255645;28;20056;-85
2021/11/01 12:30:21;;;;;;;1.00;0.28;;;16.50;70.10;;;;;;6257098;28;20045;-82
2021/11/01 12:33:23;;;;;;;0.40;0.05;;;16.60;69.30;;;;;;6257552;28;20056;-84
2021/11/01 12:36:32;;;;;;;0.60;0.13;;;16.60;70.70;;;;;;6256440;28;20563;-85
2021/11/01 12:39:38;;;;;;;3.88;0.20;;;16.80;69.70;;;;;;6255483;28;20499;-84
2021/11/01 12:42:48;;;;;;;3.00;0.40;;;16.90;68.40;;;;;;6255647;28;20050;-82
2021/11/01 12:59:40;;;;;;;1.02;0.30;;;17.10;67.50;;;;;;6278767;28;20087;-83
2021/11/01 13:02:44;;;;;;;2.63;0.40;;;17.10;66.00;;;;;;6281723;28;20059;-82
2021/11/01 13:05:53;;;;;;;2.17;0.35;;;17.20;66.20;;;;;;6279875;28;20053;-84
2021/11/01 13:08:58;;;;;;;1.45;0.30;;;17.20;65.90;;;;;;6280003;28;20044;-84
2021/11/01 13:12:27;;;;;;;2.05;0.30;;;17.20;65.70;;;;;;6279822;28;20052;-83
2021/11/01 13:19:09;;;;;;;5.18;0.40;;;17.20;67.40;;;;;;6253834;28;20037;-85
2021/11/01 13:22:15;;;;;;;3.40;0.30;;;17.40;64.30;;;;;;6259936;28;20056;-84
2021/11/01 13:25:22;;;;;;;3.80;2.47;;;17.50;63.00;;;;;;6254733;28;20073;-86
2021/11/01 13:28:44;;;;;;;4.93;1.92;;;17.50;63.90;;;;;;6253856;28;20096;-84
2021/11/01 13:35:27;;;;;;;3.10;0.60;;;17.40;63.20;;;;;;6254299;28;20045;-85
2021/11/01 13:38:31;;;;;;;2.35;0.38;;;17.40;63.30;;;;;;6255130;28;20046;-85
2021/11/01 13:41:33;;;;;;;1.77;0.30;;;17.30;62.40;;;;;;6253235;28;20173;-82
2021/11/01 13:44:36;;;;;;;1.55;0.50;;;17.20;63.20;;;;;;6254257;28;20056;-85
2021/11/01 13:47:47;;;;;;;0.98;0.30;;;17.10;62.90;;;;;;6253500;28;20124;-85
2021/11/01 13:50:48;;;;;;;5.85;0.60;;;17.10;65.00;;;;;;6252544;28;20069;-84
2021/11/01 13:54:01;;;;;;;3.80;0.32;;;17.10;62.70;;;;;;6265004;28;20179;-85
2021/11/01 13:57:06;;;;;;;4.78;0.50;;;17.10;64.40;;;;;;6270884;28;20112;-83
2021/11/01 14:00:28;;;;;;;1.85;0.45;;;17.30;65.20;;;;;;6254377;28;20045;-85
2021/11/01 14:13:42;;;;;;;7.22;1.65;;;17.50;66.80;;;;;;6254440;28;20458;-85
2021/11/01 14:16:53;;;;;;;1.27;0.30;;;17.60;68.20;;;;;;6270836;28;20045;-86
2021/11/01 14:20:08;;;;;;;8.45;6.78;;;17.70;64.80;;;;;;6277158;28;20041;-81
2021/11/01 14:30:23;;;;;;;5.05;0.80;;;17.50;65.80;;;;;;6251821;28;20046;-85
2021/11/01 15:10:50;;;;;;;6.78;1.88;;;16.40;73.00;;;;;;6288687;28;20051;-82
2021/11/01 15:14:10;;;;;;;7.85;2.22;;;16.40;72.50;;;;;;6300839;28;20048;-81
2021/11/01 15:17:25;;;;;;;6.25;1.05;;;16.20;74.00;;;;;;6298485;28;20051;-82
2021/11/01 15:34:06;;;;;;;3.60;0.80;;;15.30;77.30;;;;;;6295767;28;19917;-81
2021/11/01 15:40:57;;;;;;;6.10;0.75;;;15.00;78.80;;;;;;6294843;28;20123;-82
2021/11/01 16:17:43;;;;;;;5.75;0.60;;;12.80;88.50;;;;;;6300300;28;20497;-82
2021/11/01 16:20:47;;;;;;;11.93;1.07;;;12.60;89.30;;;;;;6299659;28;20126;-82
2021/11/01 16:26:54;;;;;;;5.72;2.10;;;12.30;90.10;;;;;;6299657;28;20464;-85
2021/11/01 16:34:10;;;;;;;2.88;0.75;;;12.10;90.40;;;;;;6302043;28;20048;-81
2021/11/01 16:37:22;;;;;;;4.78;0.50;;;12.00;90.60;;;;;;6301460;28;20529;-82
2021/11/01 16:40:24;;;;;;;5.85;1.63;;;11.90;90.70;;;;;;6302836;28;20048;-83
2021/11/01 16:43:43;;;;;;;4.57;0.93;;;11.90;90.90;;;;;;6302699;28;20139;-81
2021/11/01 16:46:46;;;;;;;21.17;5.63;;;11.70;90.90;;;;;;6301955;28;20133;-81
2021/11/01 16:49:50;;;;;;;6.68;1.65;;;11.60;91.20;;;;;;6304898;28;20071;-82
2021/11/01 16:52:54;;;;;;;11.23;1.65;;;11.60;92.20;;;;;;6309498;28;20063;-82
2021/11/01 16:56:06;;;;;;;4.75;1.33;;;11.60;92.30;;;;;;6301698;28;20052;-81
2021/11/01 16:59:15;;;;;;;5.43;1.10;;;11.70;92.40;;;;;;6302428;28;20390;-82
2021/11/01 17:25:22;;;;;;;5.25;0.68;;;11.60;91.80;;;;;;6274498;28;20041;-82
2021/11/01 17:28:42;;;;;;;2.35;0.40;;;11.50;91.50;;;;;;6276962;28;20041;-82
2021/11/01 17:35:22;;;;;;;3.05;0.45;;;11.40;91.40;;;;;;6274757;28;20052;-81
2021/11/01 20:05:30;;;;;;;3.67;1.35;;;7.50;92.20;;;;;;6285778;28;20573;-82
2021/11/01 20:09:12;;;;;;;4.25;1.42;;;7.40;92.20;;;;;;6285949;28;20048;-83
2021/11/01 21:26:05;;;;;;;2.42;1.02;;;7.30;92.60;;;;;;6299874;28;20048;-80
2021/11/01 21:29:06;;;;;;;2.83;0.70;;;7.20;92.30;;;;;;6299270;28;20048;-80
2021/11/01 21:32:08;;;;;;;4.38;0.88;;;7.10;92.20;;;;;;6299174;28;20575;-83
2021/11/01 21:35:15;;;;;;;1.65;0.90;;;7.00;92.20;;;;;;6299279;28;20571;-82
2021/11/01 21:38:17;;;;;;;3.25;0.88;;;6.90;92.10;;;;;;6299815;28;20052;-81
2021/11/01 21:41:19;;;;;;;1.95;1.10;;;6.90;92.10;;;;;;6300231;28;20048;-81
2021/11/01 21:44:21;;;;;;;1.17;0.75;;;6.80;92.10;;;;;;6299440;28;20060;-82
2021/11/01 21:47:23;;;;;;;3.55;1.10;;;6.80;92.10;;;;;;6299189;28;20559;-84
2021/11/01 21:50:26;;;;;;;4.90;1.05;;;6.70;92.20;;;;;;6298662;28;20082;-83
2021/11/01 21:53:30;;;;;;;2.83;0.80;;;6.70;92.20;;;;;;6299191;28;20186;-83
2021/11/01 21:56:33;;;;;;;4.55;0.70;;;6.70;92.20;;;;;;6299139;28;20047;-81
2021/11/01 22:09:57;;;;;;;4.55;0.90;;;6.60;92.40;;;;;;6299132;28;20052;-82
2021/11/01 22:19:48;;;;;;;1.85;1.00;;;6.90;92.20;;;;;;6299649;28;20053;-82
2021/11/01 22:23:01;;;;;;;3.20;0.60;;;6.80;92.10;;;;;;6300546;28;20178;-81
2021/11/01 22:26:08;;;;;;;4.05;0.80;;;6.70;92.10;;;;;;6299262;28;20052;-82
2021/11/01 22:39:24;;;;;;;2.83;0.47;;;6.50;92.20;;;;;;6306758;28;20045;-83
2021/11/01 22:42:33;;;;;;;7.35;1.05;;;6.50;92.30;;;;;;6307130;28;20074;-85
2021/11/01 22:45:42;;;;;;;2.95;0.80;;;6.40;92.20;;;;;;6287144;28;20202;-87
2021/11/01 22:48:50;;;;;;;2.05;0.60;;;6.40;92.20;;;;;;6277144;28;20040;-88
2021/11/01 22:58:40;;;;;;;7.32;0.80;;;6.60;92.30;;;;;;6268557;28;20041;-85
2021/11/01 23:01:44;;;;;;;2.22;0.75;;;6.70;92.20;;;;;;6277563;28;20198;-83
2021/11/01 23:04:50;;;;;;;1.10;0.57;;;6.60;91.90;;;;;;6276906;28;20613;-83
2021/11/01 23:34:30;;;;;;;2.13;1.15;;;7.00;92.50;;;;;;6279117;28;20053;-84
2021/11/01 23:37:32;;;;;;;5.82;1.02;;;7.10;92.40;;;;;;6278555;28;20047;-84
2021/11/01 23:40:33;;;;;;;1.83;1.00;;;7.30;92.20;;;;;;6278378;28;20064;-85
2021/11/01 23:43:37;;;;;;;8.25;1.25;;;7.30;92.00;;;;;;6278825;28;20195;-83
2021/11/01 23:46:39;;;;;;;3.72;0.70;;;7.30;92.00;;;;;;6279206;28;20048;-83
2021/11/01 23:49:41;;;;;;;2.15;0.60;;;7.30;91.90;;;;;;6279941;28;20072;-85
2021/11/01 23:52:54;;;;;;;5.32;1.35;;;7.30;91.90;;;;;;6282849;28;20044;-85
2021/11/01 23:55:56;;;;;;;4.10;0.85;;;7.20;92.00;;;;;;6279263;28;20049;-86
2021/11/01 23:58:59;;;;;;;6.95;1.10;;;7.20;92.00;;;;;;6280160;28;20056;-85
